createdAt,value
2023-05-05T00:01:55.450Z,0.70
2023-05-05T00:04:25.306Z,1.20
2023-05-05T00:06:54.214Z,0.90
2023-05-05T00:09:24.085Z,0.70
2023-05-05T00:11:53.399Z,0.73
2023-05-05T00:14:23.596Z,0.93
2023-05-05T00:16:54.819Z,0.83
2023-05-05T00:19:31.929Z,1.77
2023-05-05T00:22:01.672Z,1.35
2023-05-05T00:24:30.465Z,1.33
2023-05-05T00:26:59.251Z,1.42
2023-05-05T00:29:29.368Z,1.27
2023-05-05T00:31:58.456Z,1.60
2023-05-05T00:34:27.211Z,1.50
2023-05-05T00:36:56.676Z,0.80
2023-05-05T00:39:25.974Z,0.60
2023-05-05T00:41:56.261Z,0.97
2023-05-05T00:44:41.045Z,1.00
2023-05-05T00:47:10.858Z,1.50
2023-05-05T00:49:41.193Z,1.58
2023-05-05T00:52:11.023Z,1.25
2023-05-05T00:54:44.462Z,0.47
2023-05-05T00:57:14.355Z,0.80
2023-05-05T00:59:46.308Z,0.85
2023-05-05T01:02:15.641Z,1.20
2023-05-05T01:04:44.606Z,1.05
2023-05-05T01:07:27.546Z,0.40
2023-05-05T01:10:18.729Z,1.30
2023-05-05T01:12:59.515Z,1.17
2023-05-05T01:15:36.193Z,0.90
2023-05-05T01:18:28.560Z,0.75
2023-05-05T01:21:06.797Z,0.60
2023-05-05T01:24:18.370Z,0.60
2023-05-05T01:27:15.557Z,0.47
2023-05-05T01:30:06.666Z,0.32
2023-05-05T01:32:45.114Z,0.75
2023-05-05T01:35:20.799Z,0.13
2023-05-05T01:37:54.972Z,0.30
2023-05-05T01:40:31.350Z,0.25
2023-05-05T01:43:02.985Z,0.30
2023-05-05T01:45:36.926Z,0.70
2023-05-05T01:48:10.228Z,0.57
2023-05-05T01:50:41.797Z,0.50
2023-05-05T01:53:11.795Z,0.70
2023-05-05T01:55:41.809Z,1.20
2023-05-05T01:58:14.946Z,1.00
2023-05-05T02:00:45.566Z,0.70
2023-05-05T02:03:17.797Z,0.93
2023-05-05T02:05:51.265Z,1.20
2023-05-05T02:08:21.250Z,0.88
2023-05-05T02:10:53.683Z,1.40
2023-05-05T02:13:24.673Z,1.07
2023-05-05T02:15:56.036Z,1.23
2023-05-05T02:18:28.667Z,0.80
2023-05-05T02:20:57.357Z,0.65
2023-05-05T02:23:26.950Z,0.82
2023-05-05T02:26:04.774Z,1.00
2023-05-05T02:28:42.183Z,1.20
2023-05-05T02:31:13.843Z,0.43
2023-05-05T02:33:47.356Z,0.47
2023-05-05T02:36:21.933Z,0.47
2023-05-05T02:39:03.614Z,0.80
2023-05-05T02:41:40.235Z,0.70
2023-05-05T02:44:19.756Z,2.42
2023-05-05T02:46:49.457Z,0.40
2023-05-05T02:49:19.533Z,0.30
2023-05-05T02:51:48.748Z,0.33
2023-05-05T02:54:24.174Z,1.00
2023-05-05T02:56:56.714Z,0.57
2023-05-05T02:59:39.304Z,0.45
2023-05-05T03:02:23.052Z,0.50
2023-05-05T03:05:01.014Z,1.00
2023-05-05T03:07:39.489Z,0.38
2023-05-05T03:10:15.423Z,0.30
2023-05-05T03:12:55.347Z,0.35
2023-05-05T03:15:37.154Z,0.40
2023-05-05T03:18:10.690Z,0.23
2023-05-05T03:20:44.017Z,0.20
2023-05-05T03:23:18.372Z,0.47
2023-05-05T03:25:50.582Z,0.30
2023-05-05T03:28:41.862Z,0.50
2023-05-05T03:31:20.179Z,0.47
2023-05-05T03:33:53.489Z,0.60
2023-05-05T03:36:29.204Z,0.77
2023-05-05T03:38:59.361Z,0.30
2023-05-05T03:41:32.045Z,0.57
2023-05-05T03:44:01.398Z,0.20
2023-05-05T03:46:30.131Z,0.40
2023-05-05T03:48:58.874Z,0.30
2023-05-05T03:51:30.392Z,0.30
2023-05-05T03:53:59.979Z,0.30
2023-05-05T03:56:28.962Z,0.20
2023-05-05T03:58:57.651Z,0.40
2023-05-05T04:01:26.591Z,0.50
2023-05-05T04:03:55.432Z,0.50
2023-05-05T04:06:24.398Z,0.52
2023-05-05T04:08:54.648Z,0.10
2023-05-05T04:11:23.267Z,0.40
2023-05-05T04:13:52.446Z,0.30
2023-05-05T04:16:21.387Z,1.00
2023-05-05T04:18:50.033Z,0.50
2023-05-05T04:21:18.781Z,0.30
2023-05-05T04:23:48.465Z,0.20
2023-05-05T04:26:18.665Z,0.60
2023-05-05T04:28:48.101Z,1.10
2023-05-05T04:31:18.338Z,0.20
2023-05-05T04:33:48.077Z,0.70
2023-05-05T04:36:17.859Z,0.43
2023-05-05T04:38:46.814Z,0.98
2023-05-05T04:41:15.513Z,0.35
2023-05-05T04:43:47.084Z,1.23
2023-05-05T04:46:16.949Z,0.50
2023-05-05T04:48:45.723Z,0.70
2023-05-05T04:51:15.109Z,0.90
2023-05-05T04:53:43.828Z,0.70
2023-05-05T04:56:12.401Z,0.93
2023-05-05T04:58:41.492Z,1.50
2023-05-05T05:01:11.597Z,0.80
2023-05-05T05:03:41.194Z,1.95
2023-05-05T05:06:10.199Z,1.17
2023-05-05T05:08:38.868Z,1.65
2023-05-05T05:11:07.614Z,0.70
2023-05-05T05:13:36.282Z,0.35
2023-05-05T05:16:05.335Z,0.93
2023-05-05T05:18:35.384Z,1.05
2023-05-05T05:21:04.636Z,0.82
2023-05-05T05:23:33.379Z,0.50
2023-05-05T05:26:02.124Z,1.02
2023-05-05T05:28:31.577Z,1.40
2023-05-05T05:31:01.491Z,1.00
2023-05-05T05:33:30.310Z,0.57
2023-05-05T05:36:01.912Z,0.80
2023-05-05T05:38:30.608Z,1.08
2023-05-05T05:41:07.708Z,0.52
2023-05-05T05:43:38.436Z,1.45
2023-05-05T05:46:09.075Z,2.08
2023-05-05T05:48:39.629Z,1.83
2023-05-05T05:51:09.934Z,1.33
2023-05-05T05:53:38.712Z,1.25
2023-05-05T05:56:10.430Z,0.60
2023-05-05T05:58:39.659Z,0.80
2023-05-05T06:01:09.272Z,1.17
2023-05-05T06:03:38.230Z,0.45
2023-05-05T06:06:09.640Z,1.13
2023-05-05T06:08:38.597Z,0.47
2023-05-05T06:11:07.327Z,1.27
2023-05-05T06:13:36.140Z,0.73
2023-05-05T06:16:05.582Z,1.00
2023-05-05T06:18:34.654Z,0.50
2023-05-05T06:21:03.539Z,1.40
2023-05-05T06:23:34.998Z,2.65
2023-05-05T06:26:06.960Z,2.90
2023-05-05T06:28:35.557Z,2.15
2023-05-05T06:31:04.375Z,2.22
2023-05-05T06:33:33.019Z,2.13
2023-05-05T06:36:01.671Z,2.95
2023-05-05T06:38:30.781Z,1.27
2023-05-05T06:41:00.858Z,1.80
2023-05-05T06:43:30.542Z,1.58
2023-05-05T06:46:01.950Z,1.13
2023-05-05T06:48:30.707Z,1.80
2023-05-05T06:50:59.349Z,0.53
2023-05-05T06:53:27.933Z,0.80
2023-05-05T06:55:56.576Z,1.27
2023-05-05T06:58:26.722Z,0.82
2023-05-05T07:00:55.736Z,0.95
2023-05-05T07:03:24.361Z,1.07
2023-05-05T07:05:53.982Z,1.63
2023-05-05T07:08:22.822Z,0.85
2023-05-05T07:10:51.520Z,1.10
2023-05-05T07:13:22.993Z,0.80
2023-05-05T07:15:53.504Z,2.43
2023-05-05T07:18:23.162Z,0.95
2023-05-05T07:20:51.877Z,0.70
2023-05-05T07:23:20.621Z,0.80
2023-05-05T07:25:49.810Z,1.23
2023-05-05T07:28:18.854Z,1.87
2023-05-05T07:30:47.462Z,0.75
2023-05-05T07:33:18.624Z,0.93
2023-05-05T07:35:47.326Z,1.00
2023-05-05T07:38:16.175Z,1.00
2023-05-05T07:40:44.812Z,0.97
2023-05-05T07:43:13.463Z,0.75
2023-05-05T07:45:42.105Z,1.90
2023-05-05T07:48:10.962Z,0.70
2023-05-05T07:50:41.275Z,0.70
2023-05-05T07:53:14.496Z,0.70
2023-05-05T07:55:43.924Z,1.15
2023-05-05T07:58:12.501Z,0.73
2023-05-05T08:00:41.445Z,0.50
2023-05-05T08:03:11.897Z,0.50
2023-05-05T08:05:42.575Z,0.40
2023-05-05T08:08:16.273Z,2.03
2023-05-05T08:10:45.200Z,1.20
2023-05-05T08:13:14.055Z,1.38
2023-05-05T08:15:42.702Z,2.25
2023-05-05T08:18:11.374Z,0.70
2023-05-05T08:20:41.384Z,0.93
2023-05-05T08:23:09.984Z,0.90
2023-05-05T08:25:38.570Z,0.90
2023-05-05T08:28:07.164Z,1.17
2023-05-05T08:30:40.918Z,1.43
2023-05-05T08:33:09.730Z,0.60
2023-05-05T08:35:38.490Z,0.47
2023-05-05T08:38:08.736Z,0.70
2023-05-05T08:40:41.109Z,0.60
2023-05-05T08:43:09.867Z,0.33
2023-05-05T08:45:42.236Z,0.40
2023-05-05T08:48:12.289Z,0.88
2023-05-05T08:50:43.967Z,0.63
2023-05-05T08:53:18.703Z,0.50
2023-05-05T08:55:52.856Z,0.40
2023-05-05T08:58:24.162Z,0.68
2023-05-05T09:00:53.794Z,0.30
2023-05-05T09:03:23.377Z,0.52
2023-05-05T09:05:52.961Z,0.25
2023-05-05T09:08:23.820Z,0.40
2023-05-05T09:10:53.981Z,0.47
2023-05-05T09:13:23.264Z,0.45
2023-05-05T09:15:51.886Z,0.55
2023-05-05T09:18:21.303Z,0.50
2023-05-05T09:20:50.487Z,0.47
2023-05-05T09:23:22.380Z,0.88
2023-05-05T09:26:08.903Z,0.40
2023-05-05T09:28:38.590Z,0.30
2023-05-05T09:31:16.261Z,0.52
2023-05-05T09:33:45.549Z,0.40
2023-05-05T09:36:14.190Z,0.30
2023-05-05T09:38:44.265Z,0.25
2023-05-05T09:41:12.903Z,0.30
2023-05-05T09:43:52.980Z,0.40
2023-05-05T09:46:21.977Z,0.60
2023-05-05T09:48:50.756Z,0.22
2023-05-05T09:51:32.030Z,0.45
2023-05-05T09:54:02.237Z,7.85
2023-05-05T09:56:40.367Z,5.28
2023-05-05T09:59:12.804Z,1.70
2023-05-05T10:01:43.523Z,1.48
2023-05-05T10:04:26.098Z,0.40
2023-05-05T10:06:55.929Z,0.50
2023-05-05T10:09:26.809Z,0.65
2023-05-05T10:11:59.071Z,0.50
2023-05-05T10:14:32.923Z,0.60
2023-05-05T10:17:03.467Z,0.30
2023-05-05T10:19:36.175Z,0.20
2023-05-05T10:22:09.379Z,0.47
2023-05-05T10:24:44.505Z,0.37
2023-05-05T10:27:18.439Z,0.20
2023-05-05T10:29:56.135Z,0.30
2023-05-05T10:35:03.861Z,0.20
2023-05-05T10:37:34.410Z,0.40
2023-05-05T10:40:05.603Z,0.20
2023-05-05T10:42:35.116Z,0.30
2023-05-05T10:45:04.232Z,0.57
2023-05-05T10:47:35.146Z,0.30
2023-05-05T10:50:12.436Z,0.40
2023-05-05T10:52:51.611Z,0.30
2023-05-05T10:55:33.215Z,0.30
2023-05-05T10:58:02.055Z,0.30
2023-05-05T11:00:53.065Z,0.50
2023-05-05T11:03:25.206Z,0.60
2023-05-05T11:06:13.821Z,0.75
2023-05-05T11:08:44.309Z,0.70
2023-05-05T11:11:14.855Z,0.40
2023-05-05T11:13:43.633Z,0.63
2023-05-05T11:16:49.980Z,0.97
2023-05-05T11:19:49.016Z,0.90
2023-05-05T11:22:17.864Z,1.45
2023-05-05T11:24:47.352Z,1.20
2023-05-05T11:27:17.560Z,1.10
2023-05-05T11:30:12.785Z,1.40
2023-05-05T11:32:42.209Z,0.75
2023-05-05T11:35:14.826Z,1.00
2023-05-05T11:37:44.138Z,0.75
2023-05-05T11:40:25.163Z,1.00
2023-05-05T11:43:07.437Z,0.73
2023-05-05T11:45:36.973Z,0.40
2023-05-05T11:48:28.226Z,0.65
2023-05-05T11:50:58.181Z,0.43
2023-05-05T11:53:27.350Z,0.68
2023-05-05T11:56:08.603Z,0.40
2023-05-05T11:58:39.208Z,0.88
2023-05-05T12:01:09.298Z,0.40
2023-05-05T12:03:39.169Z,0.22
2023-05-05T12:06:09.631Z,0.38
2023-05-05T12:08:39.003Z,0.30
2023-05-05T12:11:10.698Z,0.20
2023-05-05T12:13:41.690Z,0.70
2023-05-05T12:16:11.174Z,1.02
2023-05-05T12:18:40.767Z,0.40
2023-05-05T12:21:17.335Z,0.47
2023-05-05T12:23:47.198Z,0.50
2023-05-05T12:26:27.893Z,0.68
2023-05-05T12:28:58.348Z,0.30
2023-05-05T12:31:37.075Z,0.73
2023-05-05T12:34:07.865Z,0.50
2023-05-05T12:36:38.240Z,0.52
2023-05-05T12:39:07.213Z,0.70
2023-05-05T12:41:37.754Z,0.25
2023-05-05T12:44:08.028Z,0.32
2023-05-05T12:46:47.226Z,0.40
2023-05-05T12:49:16.654Z,0.45
2023-05-05T12:51:55.563Z,0.50
2023-05-05T12:54:31.629Z,0.60
2023-05-05T12:57:00.289Z,0.68
2023-05-05T12:59:33.229Z,0.80
2023-05-05T13:02:07.115Z,0.68
2023-05-05T13:04:48.707Z,0.45
2023-05-05T13:07:19.703Z,0.60
2023-05-05T13:09:49.604Z,0.70
2023-05-05T13:12:19.866Z,0.50
2023-05-05T13:14:49.903Z,0.88
2023-05-05T13:17:18.834Z,0.73
2023-05-05T13:19:47.506Z,1.10
2023-05-05T13:22:16.419Z,0.70
2023-05-05T13:25:07.223Z,2.10
2023-05-05T13:27:35.284Z,0.80
2023-05-05T13:30:06.322Z,1.17
2023-05-05T13:32:36.109Z,0.90
2023-05-05T13:35:04.973Z,0.50
2023-05-05T13:37:33.761Z,0.50
2023-05-05T13:40:02.473Z,0.65
2023-05-05T13:42:32.399Z,0.50
2023-05-05T13:45:01.077Z,0.30
2023-05-05T13:47:34.115Z,0.90
2023-05-05T13:50:03.086Z,0.50
2023-05-05T13:52:33.299Z,0.52
2023-05-05T13:55:02.865Z,0.35
2023-05-05T13:57:32.692Z,0.70
2023-05-05T14:00:01.644Z,0.20
2023-05-05T14:02:34.727Z,0.40
2023-05-05T14:05:03.523Z,0.38
2023-05-05T14:07:32.792Z,0.55
2023-05-05T14:10:01.443Z,1.00
2023-05-05T14:12:32.887Z,0.73
2023-05-05T14:15:01.684Z,0.50
2023-05-05T14:17:34.996Z,0.65
2023-05-05T14:20:04.058Z,0.40
2023-05-05T14:22:34.103Z,0.52
2023-05-05T14:25:03.033Z,0.82
2023-05-05T14:27:33.346Z,0.63
2023-05-05T14:30:02.013Z,1.00
2023-05-05T14:32:35.709Z,0.77
2023-05-05T14:35:05.204Z,1.00
2023-05-05T14:37:35.441Z,0.70
2023-05-05T14:40:05.776Z,0.77
2023-05-05T14:42:34.873Z,0.60
2023-05-05T14:45:05.683Z,0.55
2023-05-05T14:47:36.603Z,0.65
2023-05-05T14:50:08.829Z,0.70
2023-05-05T14:52:39.113Z,0.50
2023-05-05T14:55:09.599Z,0.80
2023-05-05T14:57:39.015Z,1.45
2023-05-05T15:00:11.013Z,1.20
2023-05-05T15:02:41.247Z,0.77
2023-05-05T15:05:10.806Z,0.73
2023-05-05T15:07:40.190Z,1.13
2023-05-05T15:10:10.331Z,1.00
2023-05-05T15:12:39.066Z,0.98
2023-05-05T15:15:09.660Z,0.90
2023-05-05T15:17:38.934Z,1.27
2023-05-05T15:20:10.677Z,1.20
2023-05-05T15:22:39.350Z,0.80
2023-05-05T15:25:12.390Z,1.05
2023-05-05T15:27:41.267Z,1.15
2023-05-05T15:30:11.516Z,0.40
2023-05-05T15:32:40.336Z,0.73
2023-05-05T15:35:10.869Z,0.90
2023-05-05T15:37:39.604Z,1.10
2023-05-05T15:40:10.268Z,1.30
2023-05-05T15:42:39.253Z,1.07
2023-05-05T15:45:12.106Z,1.35
2023-05-05T15:47:40.857Z,1.80
2023-05-05T15:50:12.167Z,1.30
2023-05-05T15:52:41.023Z,0.93
2023-05-05T15:55:11.674Z,0.90
2023-05-05T15:57:40.524Z,0.50
2023-05-05T16:00:11.342Z,1.33
2023-05-05T16:02:40.139Z,1.45
2023-05-05T16:05:11.276Z,1.38
2023-05-05T16:07:40.271Z,2.10
2023-05-05T16:10:11.413Z,2.08
2023-05-05T16:12:40.236Z,1.58
2023-05-05T16:15:10.595Z,0.95
2023-05-05T16:17:39.879Z,1.30
2023-05-05T16:20:12.279Z,1.37
2023-05-05T16:22:41.170Z,1.27
2023-05-05T16:25:11.193Z,1.90
2023-05-05T16:27:40.227Z,3.35
2023-05-05T16:30:12.837Z,2.10
2023-05-05T16:32:41.660Z,4.37
2023-05-05T16:35:12.255Z,1.30
2023-05-05T16:37:41.201Z,2.33
2023-05-05T16:40:11.764Z,0.60
2023-05-05T16:42:41.013Z,0.68
2023-05-05T16:45:12.243Z,0.30
2023-05-05T16:47:40.973Z,0.40
2023-05-05T16:50:12.296Z,0.68
2023-05-05T16:52:40.938Z,0.75
2023-05-05T16:55:10.941Z,0.73
2023-05-05T16:57:39.882Z,0.77
2023-05-05T17:00:12.227Z,0.50
2023-05-05T17:02:40.970Z,0.75
2023-05-05T17:05:11.952Z,0.40
2023-05-05T17:07:40.928Z,0.50
2023-05-05T17:10:11.219Z,0.50
2023-05-05T17:12:39.939Z,0.63
2023-05-05T17:15:13.044Z,0.57
2023-05-05T17:17:43.099Z,0.77
2023-05-05T17:20:14.526Z,0.70
2023-05-05T17:22:43.371Z,1.77
2023-05-05T17:25:12.496Z,0.70
2023-05-05T17:27:41.875Z,0.55
2023-05-05T17:30:12.016Z,0.80
2023-05-05T17:32:40.756Z,1.10
2023-05-05T17:35:10.954Z,0.60
2023-05-05T17:37:43.864Z,0.60
2023-05-05T17:40:13.508Z,0.68
2023-05-05T17:42:42.456Z,0.80
2023-05-05T17:45:12.914Z,1.00
2023-05-05T17:47:41.742Z,1.10
2023-05-05T17:50:11.966Z,0.60
2023-05-05T17:52:43.903Z,0.65
2023-05-05T17:55:12.938Z,1.05
2023-05-05T17:57:51.047Z,1.08
2023-05-05T18:00:21.538Z,1.37
2023-05-05T18:02:50.708Z,1.58
2023-05-05T18:05:19.731Z,1.75
2023-05-05T18:07:49.957Z,1.40
2023-05-05T18:10:18.846Z,1.58
2023-05-05T18:12:48.705Z,1.67
2023-05-05T18:15:17.436Z,2.50
2023-05-05T18:17:46.159Z,2.42
2023-05-05T18:20:16.071Z,1.75
2023-05-05T18:22:45.529Z,1.23
2023-05-05T18:25:15.693Z,1.23
2023-05-05T18:27:44.846Z,0.88
2023-05-05T18:30:14.366Z,1.00
2023-05-05T18:32:43.082Z,0.80
2023-05-05T18:35:12.108Z,0.70
2023-05-05T18:37:41.616Z,1.00
2023-05-05T18:40:11.801Z,1.00
2023-05-05T18:42:41.984Z,1.17
2023-05-05T18:45:12.802Z,1.27
2023-05-05T18:47:41.679Z,1.60
2023-05-05T18:50:11.182Z,1.57
2023-05-05T18:52:39.976Z,1.08
2023-05-05T18:55:09.673Z,0.98
2023-05-05T18:57:38.646Z,0.90
2023-05-05T19:00:11.894Z,0.60
2023-05-05T19:02:40.715Z,1.00
2023-05-05T19:05:10.644Z,0.50
2023-05-05T19:07:39.741Z,0.80
2023-05-05T19:10:10.732Z,0.60
2023-05-05T19:12:39.883Z,0.55
2023-05-05T19:15:11.653Z,0.60
2023-05-05T19:17:41.140Z,0.47
2023-05-05T19:20:11.435Z,0.70
2023-05-05T19:22:40.131Z,0.60
2023-05-05T19:25:09.676Z,1.25
2023-05-05T19:27:38.647Z,1.20
2023-05-05T19:30:11.060Z,1.38
2023-05-05T19:32:39.900Z,1.75
2023-05-05T19:35:10.526Z,1.40
2023-05-05T19:37:39.600Z,1.40
2023-05-05T19:40:10.360Z,1.43
2023-05-05T19:42:39.212Z,1.48
2023-05-05T19:45:10.508Z,1.30
2023-05-05T19:47:39.202Z,1.73
2023-05-05T19:50:08.982Z,2.25
2023-05-05T19:52:38.499Z,1.57
2023-05-05T19:55:10.479Z,2.70
2023-05-05T19:57:40.246Z,4.82
2023-05-05T20:00:12.531Z,4.07
2023-05-05T20:02:42.092Z,3.40
2023-05-05T20:05:13.968Z,4.43
2023-05-05T20:07:42.879Z,5.18
2023-05-05T20:10:14.277Z,4.68
2023-05-05T20:12:49.169Z,2.85
2023-05-05T20:15:22.194Z,2.72
2023-05-05T20:17:51.396Z,2.67
2023-05-05T20:20:23.372Z,2.80
2023-05-05T20:22:52.088Z,2.42
2023-05-05T20:25:20.905Z,2.05
2023-05-05T20:27:49.691Z,2.75
2023-05-05T20:30:20.183Z,2.07
2023-05-05T20:32:48.941Z,1.80
2023-05-05T20:35:17.768Z,2.20
2023-05-05T20:37:46.418Z,2.38
2023-05-05T20:40:15.409Z,2.30
2023-05-05T20:42:44.146Z,1.63
2023-05-05T20:45:13.603Z,1.35
2023-05-05T20:47:43.751Z,1.60
2023-05-05T20:50:13.153Z,2.00
2023-05-05T20:52:42.211Z,1.50
2023-05-05T20:55:11.278Z,1.70
2023-05-05T20:57:40.306Z,2.25
2023-05-05T21:00:11.468Z,2.25
2023-05-05T21:02:40.681Z,2.35
2023-05-05T21:05:11.874Z,1.35
2023-05-05T21:07:40.947Z,2.10
2023-05-05T21:10:11.313Z,2.72
2023-05-05T21:12:42.260Z,2.08
2023-05-05T21:15:12.930Z,2.00
2023-05-05T21:17:42.880Z,1.90
2023-05-05T21:20:14.377Z,2.00
2023-05-05T21:22:43.353Z,1.70
2023-05-05T21:25:14.968Z,2.15
2023-05-05T21:27:44.222Z,1.63
2023-05-05T21:30:14.078Z,2.00
2023-05-05T21:32:43.551Z,1.27
2023-05-05T21:35:13.672Z,1.55
2023-05-05T21:37:42.782Z,1.40
2023-05-05T21:40:14.032Z,1.58
2023-05-05T21:42:43.770Z,1.70
2023-05-05T21:45:13.557Z,2.17
2023-05-05T21:47:42.345Z,3.30
2023-05-05T21:50:13.784Z,3.08
2023-05-05T21:52:42.495Z,2.92
2023-05-05T21:55:11.464Z,2.33
2023-05-05T21:57:40.381Z,2.00
2023-05-05T22:00:16.692Z,3.63
2023-05-05T22:02:47.001Z,2.55
2023-05-05T22:05:17.126Z,2.30
2023-05-05T22:07:46.121Z,1.90
2023-05-05T22:10:14.842Z,1.97
2023-05-05T22:12:43.641Z,1.70
2023-05-05T22:15:13.073Z,1.98
2023-05-05T22:17:42.163Z,2.13
2023-05-05T22:20:11.931Z,1.45
2023-05-05T22:22:42.034Z,1.67
2023-05-05T22:25:11.735Z,1.80
2023-05-05T22:27:41.079Z,1.90
2023-05-05T22:30:11.401Z,1.60
2023-05-05T22:32:40.352Z,1.48
2023-05-05T22:35:10.565Z,1.40
2023-05-05T22:37:39.416Z,1.20
2023-05-05T22:40:11.043Z,1.27
2023-05-05T22:42:39.840Z,1.38
2023-05-05T22:45:10.487Z,1.67
2023-05-05T22:47:39.491Z,1.43
2023-05-05T22:50:10.147Z,1.13
2023-05-05T22:52:38.846Z,0.90
2023-05-05T22:55:10.019Z,1.73
2023-05-05T22:57:38.946Z,1.48
2023-05-05T23:00:10.768Z,2.27
2023-05-05T23:02:40.194Z,1.33
2023-05-05T23:05:10.117Z,1.33
2023-05-05T23:07:39.254Z,1.13
2023-05-05T23:10:10.975Z,0.63
2023-05-05T23:12:39.723Z,1.10
2023-05-05T23:15:10.264Z,1.20
2023-05-05T23:17:39.229Z,1.85
2023-05-05T23:20:12.155Z,0.80
2023-05-05T23:22:41.138Z,1.00
2023-05-05T23:25:12.617Z,1.47
2023-05-05T23:27:42.013Z,1.35
2023-05-05T23:30:12.022Z,1.58
2023-05-05T23:32:40.908Z,1.85
2023-05-05T23:35:11.222Z,1.70
2023-05-05T23:37:40.218Z,1.83
2023-05-05T23:40:12.276Z,1.33
2023-05-05T23:42:41.153Z,1.92
2023-05-05T23:45:11.892Z,1.70
2023-05-05T23:47:40.973Z,1.55
2023-05-05T23:50:11.129Z,1.63
2023-05-05T23:52:39.831Z,1.35
2023-05-05T23:55:11.570Z,1.70
2023-05-05T23:57:40.627Z,1.42
